Time;durP1;ratioP1;P1;durP2;ratioP2;P2;SDS_P1;SDS_P2;PMS_P1;PMS_P2;Temp;Humidity;BMP_temperature;BMP_pressure;BME280_temperature;BME280_humidity;BME280_pressure;Samples;Min_cycle;Max_cycle;Signal;HPM_P1;HPM_P2
2022/12/29 00:00:07;;;;;;;12.05;6.62;;;;;;;0.44;83.63;102005.66;1830804;77;20896;-82
2022/12/29 00:02:42;;;;;;;10.72;6.67;;;;;;;0.46;83.74;102006.53;1830976;77;20942;-81
2022/12/29 00:05:10;;;;;;;12.47;6.70;;;;;;;0.50;83.65;102012.14;1831100;77;21230;-82
2022/12/29 00:07:37;;;;;;;7.37;5.30;;;;;;;0.53;83.53;102004.41;1831292;77;20916;-81
2022/12/29 00:10:07;;;;;;;7.53;6.08;;;;;;;0.56;83.56;102005.28;1836983;77;20931;-81
2022/12/29 00:15:38;;;;;;;9.15;5.50;;;;;;;0.61;83.34;101996.27;1837085;77;20864;-84
2022/12/29 00:18:06;;;;;;;;;;;;;;;0.66;83.25;102002.30;1836877;78;21244;-85
2022/12/29 00:37:14;;;;;;;12.75;7.10;;;;;;;0.91;82.55;102007.13;1834002;78;20959;-84
2022/12/29 00:45:12;;;;;;;13.80;7.80;;;;;;;0.91;82.14;102012.30;1834283;77;21129;-83
2022/12/29 00:47:40;;;;;;;15.00;7.47;;;;;;;0.92;82.02;102010.56;1833888;78;20836;-84
2022/12/29 00:50:08;;;;;;;12.68;7.25;;;;;;;0.92;81.99;102008.83;1833341;77;21380;-84
2022/12/29 00:52:36;;;;;;;12.90;7.60;;;;;;;0.93;81.86;102007.11;1833444;78;20875;-85
2022/12/29 00:55:03;;;;;;;15.50;8.63;;;;;;;0.92;81.83;101999.80;1833570;77;20942;-84
2022/12/29 00:57:32;;;;;;;15.90;7.72;;;;;;;0.92;81.75;102011.85;1833512;78;21846;-84
2022/12/29 00:59:58;;;;;;;8.23;6.25;;;;;;;0.93;81.71;102006.67;1833475;78;20883;-84
2022/12/29 01:02:25;;;;;;;11.93;7.50;;;;;;;0.94;81.73;102002.39;1833363;78;20966;-84
2022/12/29 01:04:52;;;;;;;12.68;7.75;;;;;;;0.95;81.67;101992.48;1833386;77;20938;-82
2022/12/29 01:07:18;;;;;;;15.15;6.97;;;;;;;0.96;81.64;101997.66;1833375;77;20895;-81
2022/12/29 01:12:41;;;;;;;13.38;7.75;;;;;;;1.02;81.23;102001.95;1827125;77;20833;-84
2022/12/29 01:15:11;;;;;;;15.90;7.65;;;;;;;1.01;81.09;102004.13;1809024;78;20951;-83
2022/12/29 01:17:38;;;;;;;15.13;9.05;;;;;;;0.99;81.02;101995.06;1827533;78;21317;-84
2022/12/29 01:20:06;;;;;;;14.05;7.30;;;;;;;0.99;81.06;101986.03;1827844;77;20910;-81
2022/12/29 01:22:33;;;;;;;14.60;8.50;;;;;;;0.99;80.96;101995.06;1828363;78;21283;-83
2022/12/29 01:24:59;;;;;;;13.95;7.20;;;;;;;0.99;80.89;101989.05;1828227;77;20895;-84
2022/12/29 01:27:26;;;;;;;11.65;7.62;;;;;;;1.00;80.96;101986.48;1827068;78;20871;-84
2022/12/29 01:29:53;;;;;;;16.27;8.58;;;;;;;1.01;80.93;101995.08;1827106;78;20880;-85
2022/12/29 01:32:20;;;;;;;15.40;8.28;;;;;;;1.02;80.96;101993.80;1827037;78;20915;-83
2022/12/29 01:34:46;;;;;;;21.00;9.88;;;;;;;1.05;80.93;101992.94;1827032;78;21217;-84
2022/12/29 01:37:13;;;;;;;14.78;9.68;;;;;;;1.08;80.95;101998.09;1827148;78;21365;-84
2022/12/29 01:39:40;;;;;;;17.60;11.40;;;;;;;1.11;80.90;101996.83;1827480;77;20844;-83
2022/12/29 01:42:12;;;;;;;16.12;9.13;;;;;;;1.13;80.80;101995.52;1827313;78;20907;-82
2022/12/29 01:44:50;;;;;;;14.28;8.05;;;;;;;1.14;80.65;101990.36;1825362;78;20829;-84
2022/12/29 01:47:34;;;;;;;16.93;7.70;;;;;;;1.15;80.66;101993.36;1828155;77;21228;-82
2022/12/29 01:50:12;;;;;;;14.80;8.37;;;;;;;1.17;80.41;101990.36;1827662;78;21330;-83
2022/12/29 01:52:43;;;;;;;17.10;8.25;;;;;;;1.16;80.67;101996.39;1827131;78;21354;-85
2022/12/29 01:55:10;;;;;;;14.83;7.92;;;;;;;1.21;80.83;101999.84;1827081;78;20892;-84
2022/12/29 01:57:39;;;;;;;11.48;7.53;;;;;;;1.27;80.68;101999.41;1827058;78;20841;-84
2022/12/29 02:00:10;;;;;;;11.63;6.80;;;;;;;1.29;80.62;101995.98;1827284;78;21120;-83
2022/12/29 02:02:46;;;;;;;15.80;9.35;;;;;;;1.33;80.72;101998.12;1827007;78;20868;-83
2022/12/29 02:05:41;;;;;;;15.13;8.88;;;;;;;1.40;80.90;102003.31;1826438;78;20911;-83
2022/12/29 02:08:10;;;;;;;11.95;7.15;;;;;;;1.52;80.75;102000.30;1820248;77;21685;-83
2022/12/29 02:10:36;;;;;;;12.73;7.62;;;;;;;1.60;80.16;101993.38;1827236;78;21357;-82
2022/12/29 02:13:03;;;;;;;11.48;6.92;;;;;;;1.60;79.99;102003.31;1827471;78;21200;-82
2022/12/29 02:16:01;;;;;;;11.53;7.70;;;;;;;1.60;80.02;101994.67;1827026;78;21341;-84
2022/12/29 02:18:53;;;;;;;14.33;8.43;;;;;;;1.65;79.87;102002.02;1827261;77;20809;-81
2022/12/29 02:22:07;;;;;;;11.38;7.67;;;;;;;1.65;79.72;102001.58;1811642;78;20857;-83
2022/12/29 02:25:00;;;;;;;9.35;7.08;;;;;;;1.70;79.79;101992.95;1827158;78;21415;-83
2022/12/29 02:27:57;;;;;;;11.33;7.12;;;;;;;1.73;79.62;101986.03;1827163;78;21239;-83
2022/12/29 02:31:00;;;;;;;12.33;7.50;;;;;;;1.77;79.52;101987.76;1823447;78;20924;-83
2022/12/29 02:33:58;;;;;;;17.32;6.85;;;;;;;1.80;79.50;101976.55;1826899;78;21037;-83
2022/12/29 02:36:48;;;;;;;11.38;6.53;;;;;;;1.79;79.43;101978.72;1827279;78;20880;-84
2022/12/29 02:39:36;;;;;;;11.63;6.67;;;;;;;1.78;79.22;101984.33;1827076;78;20970;-81
2022/12/29 02:42:26;;;;;;;12.82;6.97;;;;;;;1.76;79.09;101986.49;1827207;78;21142;-84
2022/12/29 02:45:27;;;;;;;14.85;9.03;;;;;;;1.73;78.98;101996.37;1827493;77;20912;-83
2022/12/29 02:48:34;;;;;;;10.25;7.20;;;;;;;1.67;78.93;101991.23;1827486;77;20916;-83
2022/12/29 02:51:09;;;;;;;13.25;8.60;;;;;;;1.63;79.10;101989.52;1827467;77;21302;-84
2022/12/29 02:56:22;;;;;;;12.43;8.18;;;;;;;1.61;79.42;101986.92;1827183;77;21175;-83
2022/12/29 02:58:49;;;;;;;14.68;7.65;;;;;;;1.61;79.45;101984.77;1827062;78;20817;-83
2022/12/29 03:02:16;;;;;;;13.58;7.75;;;;;;;1.60;79.39;101988.20;1827457;78;20841;-84
2022/12/29 03:04:52;;;;;;;12.43;7.62;;;;;;;1.59;79.36;101977.01;1824259;78;20876;-83
2022/12/29 03:07:49;;;;;;;14.93;8.95;;;;;;;1.56;79.48;101979.61;1827201;78;20860;-83
2022/12/29 03:10:39;;;;;;;11.85;8.05;;;;;;;1.56;79.73;101980.05;1832660;77;21380;-83
2022/12/29 03:16:23;;;;;;;14.90;9.00;;;;;;;1.56;79.84;101983.48;1833224;77;20927;-83
2022/12/29 03:19:06;;;;;;;13.25;9.68;;;;;;;1.56;79.93;101986.07;1833604;78;20926;-84
2022/12/29 03:24:37;;;;;;;13.80;8.88;;;;;;;1.57;79.90;101986.48;1834896;77;21998;-82
2022/12/29 03:27:06;;;;;;;12.45;7.83;;;;;;;1.56;79.98;101985.22;1818410;78;20911;-81
2022/12/29 03:29:39;;;;;;;15.60;8.75;;;;;;;1.55;80.30;101980.45;1833586;77;20895;-84
2022/12/29 03:32:05;;;;;;;16.85;9.23;;;;;;;1.57;80.34;101986.48;1833358;78;20876;-83
2022/12/29 03:34:32;;;;;;;15.40;8.65;;;;;;;1.60;80.26;101983.03;1833767;77;20963;-84
2022/12/29 03:37:06;;;;;;;16.05;9.35;;;;;;;1.64;80.22;101986.05;1833187;78;21073;-84
2022/12/29 03:39:33;;;;;;;17.67;10.65;;;;;;;1.65;80.12;101973.57;1833604;77;21432;-83
2022/12/29 03:42:06;;;;;;;17.62;8.68;;;;;;;1.65;80.15;101970.55;1833824;78;20848;-83
2022/12/29 03:44:39;;;;;;;17.23;9.18;;;;;;;1.64;80.22;101965.37;1817076;78;21440;-82
2022/12/29 03:47:05;;;;;;;15.23;9.20;;;;;;;1.60;80.26;101967.52;1818547;78;21413;-83
2022/12/29 03:49:34;;;;;;;16.05;9.90;;;;;;;1.58;80.32;101975.70;1833777;77;20911;-82
2022/12/29 03:52:03;;;;;;;13.62;9.48;;;;;;;1.56;80.37;101970.56;1833212;77;20943;-84
2022/12/29 03:54:30;;;;;;;15.90;9.50;;;;;;;1.55;80.39;101964.94;1833305;78;20860;-84
2022/12/29 03:56:57;;;;;;;13.80;9.95;;;;;;;1.53;80.50;101952.45;1833936;78;20833;-85
2022/12/29 03:59:26;;;;;;;15.58;9.43;;;;;;;1.51;80.74;101954.17;1834090;76;21040;-84
2022/12/29 04:01:53;;;;;;;20.30;10.85;;;;;;;1.49;80.82;101955.92;1834707;77;21057;-82
2022/12/29 04:04:19;;;;;;;16.40;10.18;;;;;;;1.48;80.95;101956.77;1834625;78;21412;-83
2022/12/29 04:06:46;;;;;;;13.32;8.13;;;;;;;1.49;80.91;101959.80;1833297;78;21427;-82
2022/12/29 04:09:15;;;;;;;12.50;9.65;;;;;;;1.50;80.92;101958.07;1831876;76;21048;-84
2022/12/29 04:11:44;;;;;;;14.45;10.28;;;;;;;1.51;80.89;101948.15;1827294;77;21380;-85
2022/12/29 04:14:10;;;;;;;14.60;9.48;;;;;;;1.52;81.06;101951.18;1827251;78;21216;-83
2022/12/29 04:16:38;;;;;;;14.53;9.70;;;;;;;1.54;80.96;101943.84;1827098;77;21325;-83
2022/12/29 04:19:07;;;;;;;16.65;9.80;;;;;;;1.55;80.93;101942.97;1827478;78;20939;-84
2022/12/29 04:21:35;;;;;;;16.35;10.00;;;;;;;1.58;80.82;101949.85;1827250;78;20951;-84
2022/12/29 04:24:01;;;;;;;17.80;12.55;;;;;;;1.60;80.66;101950.72;1827262;77;20840;-84
2022/12/29 04:26:28;;;;;;;26.50;16.93;;;;;;;1.59;80.60;101955.47;1827060;78;21098;-84
2022/12/29 04:28:56;;;;;;;20.00;14.28;;;;;;;1.56;80.71;101960.22;1790746;78;20860;-83
2022/12/29 04:31:30;;;;;;;15.00;9.78;;;;;;;1.56;80.80;101951.61;1826077;77;20837;-86
2022/12/29 04:33:59;;;;;;;20.77;9.63;;;;;;;1.55;80.82;101957.19;1828122;78;20883;-83
2022/12/29 04:36:27;;;;;;;13.68;9.18;;;;;;;1.54;80.87;101963.67;1830182;78;20872;-85
2022/12/29 04:38:54;;;;;;;13.78;8.43;;;;;;;1.53;81.00;101963.23;1827632;78;21191;-83
2022/12/29 04:41:20;;;;;;;23.35;9.63;;;;;;;1.51;81.01;101963.22;1827428;77;20911;-83
2022/12/29 04:43:50;;;;;;;14.43;9.50;;;;;;;1.50;81.03;101966.68;1827598;78;20911;-85
2022/12/29 04:46:16;;;;;;;13.65;10.53;;;;;;;1.50;81.04;101965.39;1827285;77;20951;-85
2022/12/29 04:48:53;;;;;;;18.17;13.40;;;;;;;1.51;81.04;101960.63;1826852;78;21421;-83
2022/12/29 04:51:27;;;;;;;16.15;9.85;;;;;;;1.49;81.10;101962.80;1827425;77;21101;-84
2022/12/29 04:53:54;;;;;;;15.32;9.30;;;;;;;1.47;81.17;101957.64;1827532;78;20962;-84
2022/12/29 04:56:20;;;;;;;15.65;11.20;;;;;;;1.42;81.27;101960.23;1827225;77;20833;-84
2022/12/29 04:58:47;;;;;;;24.70;14.50;;;;;;;1.39;81.44;101964.09;1827152;78;21406;-83
2022/12/29 05:01:14;;;;;;;14.93;9.40;;;;;;;1.40;81.43;101955.91;1827086;78;20899;-84
2022/12/29 05:03:41;;;;;;;14.93;11.25;;;;;;;1.40;81.37;101967.12;1827428;78;21118;-82
2022/12/29 05:06:08;;;;;;;14.73;9.53;;;;;;;1.41;81.34;101971.86;1806587;78;21406;-84
2022/12/29 05:10:16;;;;;;;13.60;9.93;;;;;;;1.47;81.54;101962.81;1798707;79;22693;-85
2022/12/29 05:12:44;;;;;;;15.08;8.95;;;;;;;1.45;81.51;101963.25;1739853;81;20860;-83
2022/12/29 05:15:11;;;;;;;18.10;10.95;;;;;;;1.44;81.42;101961.51;1758397;80;21799;-82
2022/12/29 05:17:38;;;;;;;17.87;9.63;;;;;;;1.41;81.44;101951.19;1758453;81;21041;-84
2022/12/29 05:20:07;;;;;;;12.75;9.18;;;;;;;1.40;81.40;101957.20;1758471;81;20873;-84
2022/12/29 05:22:35;;;;;;;19.80;10.63;;;;;;;1.39;81.50;101958.92;1758467;80;20900;-85
2022/12/29 05:25:02;;;;;;;15.00;11.10;;;;;;;1.39;81.53;101960.66;1758871;80;21398;-85
2022/12/29 05:27:30;;;;;;;17.80;11.48;;;;;;;1.39;81.61;101966.68;1758503;81;21150;-83
2022/12/29 05:30:02;;;;;;;18.70;10.53;;;;;;;1.37;81.57;101961.09;1747311;81;20845;-84
2022/12/29 05:32:29;;;;;;;10.63;8.83;;;;;;;1.37;81.51;101970.13;1758460;81;21007;-84
2022/12/29 05:34:55;;;;;;;11.45;9.90;;;;;;;1.37;81.47;101972.72;1758486;81;20889;-83
2022/12/29 05:37:24;;;;;;;16.90;10.63;;;;;;;1.36;81.33;101984.78;1758414;81;20900;-83
2022/12/29 05:39:50;;;;;;;13.50;9.63;;;;;;;1.33;81.40;101990.38;1758457;81;21230;-84
2022/12/29 05:42:19;;;;;;;19.17;10.35;;;;;;;1.30;81.55;101991.67;1758673;81;21421;-84
2022/12/29 05:45:06;;;;;;;18.30;10.78;;;;;;;1.26;81.69;101986.92;1758697;80;20928;-87
2022/12/29 05:47:53;;;;;;;18.65;10.13;;;;;;;1.28;81.93;101993.39;1758230;81;20908;-85
2022/12/29 05:50:38;;;;;;;13.05;9.25;;;;;;;1.31;81.83;101992.09;1758863;81;20927;-84
2022/12/29 05:53:16;;;;;;;17.27;9.90;;;;;;;1.32;81.65;102006.31;1759771;81;21255;-84
2022/12/29 05:55:44;;;;;;;14.95;9.10;;;;;;;1.33;81.62;102004.58;1758673;81;20880;-85
2022/12/29 05:58:12;;;;;;;12.75;8.53;;;;;;;1.35;81.65;102005.02;1696677;83;20935;-85
2022/12/29 06:00:39;;;;;;;12.25;8.63;;;;;;;1.37;81.69;102017.50;1726406;83;20934;-84
2022/12/29 06:03:06;;;;;;;14.30;8.98;;;;;;;1.39;81.70;102019.66;1726012;83;21309;-85
2022/12/29 06:05:33;;;;;;;22.20;11.75;;;;;;;1.42;81.59;102018.80;1725372;83;21231;-86
2022/12/29 06:07:59;;;;;;;17.98;11.12;;;;;;;1.43;81.43;102009.77;1711405;84;20968;-87
2022/12/29 06:10:28;;;;;;;16.77;10.03;;;;;;;1.47;81.33;102009.75;1718497;83;20925;-86
2022/12/29 06:12:56;;;;;;;19.12;12.00;;;;;;;1.48;81.23;102013.64;1721462;83;20904;-87
2022/12/29 06:15:25;;;;;;;11.70;7.53;;;;;;;1.49;81.12;102008.03;1722835;82;20927;-88
2022/12/29 06:17:53;;;;;;;20.25;7.78;;;;;;;1.49;80.98;102011.91;1722907;82;21247;-85
2022/12/29 06:20:22;;;;;;;14.55;7.97;;;;;;;1.47;81.07;102010.64;1722601;83;21420;-84
2022/12/29 06:22:49;;;;;;;9.23;7.40;;;;;;;1.49;81.10;102017.97;1722171;83;20924;-86
2022/12/29 06:25:17;;;;;;;15.83;8.38;;;;;;;1.49;80.95;102011.50;1722271;83;20939;-85
2022/12/29 06:27:48;;;;;;;11.53;8.28;;;;;;;1.50;80.90;102009.77;1722482;83;20891;-87
2022/12/29 06:30:17;;;;;;;14.63;8.80;;;;;;;1.48;80.79;102008.91;1722361;82;21143;-87
2022/12/29 06:32:46;;;;;;;11.60;8.83;;;;;;;1.45;80.77;102015.80;1722730;82;20931;-86
2022/12/29 06:35:14;;;;;;;16.57;11.00;;;;;;;1.45;80.76;102008.48;1722546;82;21306;-87
2022/12/29 06:37:43;;;;;;;13.98;10.32;;;;;;;1.46;80.76;102005.02;1722149;83;20939;-85
2022/12/29 06:40:11;;;;;;;10.95;8.20;;;;;;;1.49;80.90;102014.09;1722619;83;20975;-88
2022/12/29 06:42:59;;;;;;;9.98;8.15;;;;;;;1.52;80.92;102002.44;1676485;85;21820;-84
2022/12/29 06:45:40;;;;;;;14.30;9.65;;;;;;;1.56;80.84;101997.70;1693460;84;20989;-86
2022/12/29 06:48:09;;;;;;;12.05;8.55;;;;;;;1.59;80.47;101986.05;1693291;84;21379;-87
2022/12/29 06:50:36;;;;;;;14.93;9.28;;;;;;;1.61;80.42;101988.21;1693906;84;20984;-87
2022/12/29 06:53:04;;;;;;;12.13;8.85;;;;;;;1.57;80.35;101978.73;1693464;84;20951;-89
2022/12/29 06:55:32;;;;;;;11.12;8.33;;;;;;;1.61;80.30;101985.63;1695009;84;20973;-87
2022/12/29 06:58:04;;;;;;;12.75;8.63;;;;;;;1.62;80.31;101983.89;1694538;84;20933;-86
2022/12/29 07:00:32;;;;;;;17.25;11.35;;;;;;;1.66;80.09;101991.64;1694427;84;21529;-88
2022/12/29 07:03:01;;;;;;;16.27;8.90;;;;;;;1.70;79.98;101983.91;1695046;83;21012;-87
2022/12/29 07:05:28;;;;;;;14.13;9.33;;;;;;;1.72;79.61;101983.48;1694486;84;20910;-84
2022/12/29 07:07:55;;;;;;;11.10;8.28;;;;;;;1.73;79.45;101978.28;1694207;84;20862;-86
2022/12/29 07:10:24;;;;;;;12.98;8.48;;;;;;;1.76;79.33;101981.32;1680027;84;20894;-87
2022/12/29 07:12:51;;;;;;;10.28;7.58;;;;;;;1.78;79.08;101984.33;1680970;85;21026;-85
2022/12/29 07:15:18;;;;;;;17.70;10.23;;;;;;;1.82;79.03;101990.34;1705041;84;20980;-86
2022/12/29 07:17:46;;;;;;;17.70;9.60;;;;;;;1.87;78.97;101992.51;1704908;84;20940;-85
2022/12/29 07:20:12;;;;;;;13.83;8.70;;;;;;;1.92;78.97;101997.23;1705737;84;21210;-87
2022/12/29 07:22:40;;;;;;;16.35;9.60;;;;;;;1.97;78.75;101995.48;1710717;82;20939;-84
2022/12/29 07:25:07;;;;;;;21.87;11.83;;;;;;;2.01;78.58;101997.64;1710943;84;20900;-86
2022/12/29 07:27:34;;;;;;;19.05;13.18;;;;;;;2.00;78.30;101998.08;1710298;82;20944;-86
2022/12/29 07:30:01;;;;;;;17.17;10.65;;;;;;;2.01;78.27;101992.03;1710421;83;20933;-86
2022/12/29 07:32:32;;;;;;;16.37;9.83;;;;;;;1.99;78.13;101989.87;1710045;84;21192;-84
2022/12/29 07:34:59;;;;;;;14.98;8.65;;;;;;;1.98;78.17;101993.34;1666925;84;20991;-87
2022/12/29 07:37:26;;;;;;;17.48;9.75;;;;;;;1.97;78.18;101988.16;1710686;84;20917;-85
2022/12/29 07:39:53;;;;;;;14.03;8.45;;;;;;;1.96;78.19;101983.87;1710630;81;20964;-86
2022/12/29 07:42:20;;;;;;;9.73;7.40;;;;;;;1.90;78.26;101989.91;1711966;81;20936;-86
2022/12/29 07:44:49;;;;;;;15.65;8.80;;;;;;;1.86;78.37;101997.23;1709265;82;21166;-85
2022/12/29 07:47:21;;;;;;;12.47;10.55;;;;;;;1.82;78.50;101998.09;1745501;81;20945;-87
2022/12/29 07:49:48;;;;;;;11.28;7.80;;;;;;;1.79;78.61;101994.23;1745062;81;20928;-87
2022/12/29 07:52:15;;;;;;;9.33;7.30;;;;;;;1.77;78.90;101998.10;1745705;81;20862;-84
2022/12/29 07:54:42;;;;;;;12.03;7.83;;;;;;;1.77;79.07;101990.78;1745338;81;20893;-86
2022/12/29 07:57:09;;;;;;;15.63;7.40;;;;;;;1.78;79.19;101995.97;1746778;81;21239;-88
2022/12/29 07:59:36;;;;;;;10.40;7.10;;;;;;;1.77;79.39;101985.17;1745830;82;20897;-87
2022/12/29 08:02:02;;;;;;;12.47;7.35;;;;;;;1.89;79.47;101997.25;1745566;81;20976;-87
2022/12/29 08:04:29;;;;;;;9.20;5.87;;;;;;;1.95;79.49;101995.92;1745587;81;20932;-87
2022/12/29 08:06:55;;;;;;;22.90;15.70;;;;;;;2.03;79.15;102001.09;1745520;82;20885;-87
2022/12/29 08:09:22;;;;;;;17.35;10.53;;;;;;;2.10;78.89;101989.85;1745734;81;21792;-87
2022/12/29 08:11:49;;;;;;;12.43;8.65;;;;;;;2.18;78.53;101997.17;1745933;82;21039;-88
2022/12/29 08:14:16;;;;;;;16.97;11.03;;;;;;;2.27;78.47;101995.84;1745655;81;20999;-85
2022/12/29 08:16:42;;;;;;;24.43;12.37;;;;;;;2.33;77.88;101992.80;1747336;80;20941;-89
2022/12/29 08:19:12;;;;;;;20.45;12.10;;;;;;;2.35;77.38;101991.06;1746944;81;21492;-88
2022/12/29 08:21:39;;;;;;;21.15;13.65;;;;;;;2.37;77.36;101990.63;1746089;81;21202;-86
2022/12/29 08:24:06;;;;;;;19.98;12.07;;;;;;;2.41;77.34;101990.61;1745678;80;20849;-89
2022/12/29 08:26:33;;;;;;;17.25;10.88;;;;;;;2.52;77.33;101993.16;1746449;81;20861;-87
2022/12/29 08:29:00;;;;;;;22.27;12.93;;;;;;;2.62;77.00;102006.91;1746170;80;20909;-88
2022/12/29 08:31:28;;;;;;;19.20;12.13;;;;;;;2.71;76.96;102000.39;1746237;82;21354;-87
2022/12/29 08:33:56;;;;;;;20.05;11.57;;;;;;;2.80;76.75;101993.89;1746732;82;21519;-87
2022/12/29 08:36:24;;;;;;;14.45;8.78;;;;;;;2.90;76.63;101991.66;1746545;81;20893;-85
2022/12/29 08:38:51;;;;;;;15.25;8.85;;;;;;;2.98;75.92;101985.55;1746603;80;20901;-88
2022/12/29 08:41:23;;;;;;;15.80;10.05;;;;;;;2.98;75.68;101978.66;1747493;79;21414;-85
2022/12/29 08:43:50;;;;;;;13.68;8.38;;;;;;;3.01;75.45;101976.48;1746360;81;20952;-87
2022/12/29 08:46:19;;;;;;;14.00;8.95;;;;;;;3.03;75.22;101972.16;1746041;81;21191;-87
2022/12/29 08:48:45;;;;;;;16.97;11.30;;;;;;;3.01;75.03;101976.48;1746415;80;20923;-89
2022/12/29 08:51:12;;;;;;;10.72;6.78;;;;;;;2.99;74.95;101967.41;1746062;82;21394;-85
2022/12/29 08:53:39;;;;;;;16.42;8.20;;;;;;;2.99;75.13;101965.27;1746432;82;21005;-88
2022/12/29 08:56:13;;;;;;;20.05;9.58;;;;;;;2.99;75.01;101964.83;1747125;80;20885;-84
2022/12/29 08:58:43;;;;;;;10.03;6.97;;;;;;;3.02;74.89;101965.23;1710373;81;20940;-87
2022/12/29 09:01:10;;;;;;;11.30;7.50;;;;;;;3.04;74.33;101969.97;1710711;84;21422;-87
2022/12/29 09:03:37;;;;;;;13.75;7.92;;;;;;;3.04;74.07;101968.67;1709655;84;20944;-87
2022/12/29 09:06:04;;;;;;;15.05;7.80;;;;;;;3.06;74.28;101964.34;1709907;84;21525;-88
2022/12/29 09:08:30;;;;;;;10.63;6.90;;;;;;;3.08;74.41;101953.53;1709608;84;21385;-88
2022/12/29 09:11:13;;;;;;;12.15;6.30;;;;;;;3.11;74.05;101959.98;1745257;82;21227;-86
2022/12/29 09:13:41;;;;;;;13.85;7.67;;;;;;;3.10;73.80;101964.31;1746540;81;20889;-88
2022/12/29 09:16:08;;;;;;;15.88;7.85;;;;;;;3.10;74.13;101977.27;1746144;80;20873;-87
2022/12/29 09:18:34;;;;;;;9.43;6.42;;;;;;;3.16;74.24;101969.02;1745768;81;20990;-85
2022/12/29 09:21:03;;;;;;;18.35;8.70;;;;;;;3.18;74.17;101965.56;1746215;80;20971;-86
2022/12/29 09:23:30;;;;;;;11.55;7.70;;;;;;;3.26;74.14;101965.49;1746250;81;21310;-87
2022/12/29 09:26:01;;;;;;;12.88;7.17;;;;;;;3.31;73.33;101962.00;1745982;80;20949;-88
2022/12/29 09:28:28;;;;;;;14.70;7.20;;;;;;;3.32;72.92;101963.71;1747628;82;20857;-88
2022/12/29 09:31:03;;;;;;;10.82;6.25;;;;;;;3.36;73.06;101961.97;1747327;81;20877;-88
2022/12/29 09:33:32;;;;;;;9.43;6.62;;;;;;;3.42;73.24;101972.70;1745268;80;20948;-87
2022/12/29 09:35:59;;;;;;;11.18;5.53;;;;;;;3.48;73.30;101973.95;1745697;80;21324;-86
2022/12/29 09:38:26;;;;;;;8.83;5.35;;;;;;;3.52;73.17;101976.95;1746089;82;20913;-88
2022/12/29 09:41:02;;;;;;;9.95;5.58;;;;;;;3.58;72.78;101968.23;1735314;82;20924;-88
2022/12/29 09:43:50;;;;;;;6.25;4.92;;;;;;;3.63;72.87;101970.38;1746678;79;21048;-89
2022/12/29 09:46:36;;;;;;;9.98;5.25;;;;;;;3.70;72.77;101974.62;1710799;83;20856;-85
2022/12/29 09:49:47;;;;;;;7.03;5.17;;;;;;;3.79;72.32;101974.53;1746386;81;21092;-88
2022/12/29 09:52:31;;;;;;;11.08;6.47;;;;;;;3.89;72.05;101979.17;1746726;80;20913;-86
2022/12/29 09:55:07;;;;;;;9.38;6.15;;;;;;;4.02;71.58;101970.83;1745560;80;20928;-87
2022/12/29 09:57:49;;;;;;;9.15;6.03;;;;;;;4.13;71.43;101966.38;1747284;81;20901;-86
2022/12/29 10:00:19;;;;;;;9.50;5.75;;;;;;;4.23;70.98;101974.48;1747239;81;20912;-86
2022/12/29 10:03:01;;;;;;;7.72;5.08;;;;;;;4.30;70.46;101960.55;1746473;81;21269;-86
2022/12/29 10:05:45;;;;;;;9.60;6.50;;;;;;;4.36;70.23;101951.84;1712240;81;21074;-86
2022/12/29 10:08:56;;;;;;;10.75;6.42;;;;;;;4.37;69.98;101948.34;1747985;80;20948;-83
2022/12/29 10:11:51;;;;;;;8.18;5.45;;;;;;;4.38;69.79;101950.08;1747605;79;20940;-84
2022/12/29 10:14:39;;;;;;;10.35;5.15;;;;;;;4.36;69.91;101943.59;1710976;82;20993;-86
2022/12/29 10:17:43;;;;;;;7.70;5.83;;;;;;;4.35;69.61;101940.56;1710212;84;21114;-85
2022/12/29 10:20:24;;;;;;;;;;;;;;;4.31;69.19;101939.33;1750215;79;20952;-87
2022/12/29 10:23:27;;;;;;;9.35;6.60;;;;;;;4.28;69.25;101927.25;1747140;79;20097;-88
2022/12/29 10:25:56;;;;;;;9.18;6.42;;;;;;;4.25;69.37;101918.21;1698182;81;20928;-88
2022/12/29 10:28:37;;;;;;;11.00;6.72;;;;;;;4.20;69.25;101919.98;1711697;81;20983;-90
2022/12/29 10:31:08;;;;;;;8.63;5.95;;;;;;;4.17;69.64;101904.91;1710977;81;21078;-86
2022/12/29 10:33:39;;;;;;;10.82;6.17;;;;;;;4.13;70.01;101897.13;1747474;79;20835;-87
2022/12/29 10:36:40;;;;;;;9.15;5.80;;;;;;;4.12;70.15;101902.37;1747521;79;20912;-85
2022/12/29 10:39:26;;;;;;;7.80;4.62;;;;;;;4.12;70.27;101898.47;1703581;79;20912;-88
2022/12/29 10:42:07;;;;;;;7.25;4.55;;;;;;;4.14;70.71;101899.31;1711969;81;20908;-85
2022/12/29 10:44:34;;;;;;;10.72;7.12;;;;;;;4.18;70.64;101891.91;1712232;81;21170;-86
2022/12/29 10:47:06;;;;;;;13.18;6.00;;;;;;;4.25;70.75;101897.88;1737554;80;20862;-85
2022/12/29 10:49:34;;;;;;;9.45;6.40;;;;;;;4.26;70.79;101887.91;1690479;83;20912;-86
2022/12/29 10:52:02;;;;;;;6.40;5.50;;;;;;;4.32;71.15;101891.27;1712177;81;20969;-86
2022/12/29 10:54:39;;;;;;;19.62;10.08;;;;;;;4.35;71.00;101888.63;1710622;81;21487;-87
2022/12/29 10:57:30;;;;;;;15.10;9.58;;;;;;;4.35;71.18;101887.33;1746336;82;21776;-87
2022/12/29 10:59:57;;;;;;;14.95;9.35;;;;;;;4.39;71.37;101879.06;1711035;84;20873;-86
2022/12/29 11:02:49;;;;;;;9.80;7.67;;;;;;;4.42;71.53;101875.56;1747056;81;20917;-86
2022/12/29 11:05:31;;;;;;;13.00;7.35;;;;;;;4.42;71.80;101885.95;1735785;82;20870;-85
2022/12/29 11:08:17;;;;;;;13.20;6.53;;;;;;;4.43;71.62;101874.70;1710886;83;20928;-84
2022/12/29 11:10:45;;;;;;;10.43;6.00;;;;;;;4.42;71.44;101863.42;1709625;83;21175;-87
2022/12/29 11:13:21;;;;;;;12.13;6.70;;;;;;;4.47;71.29;101864.23;1709306;84;20972;-87
2022/12/29 11:15:49;;;;;;;11.50;6.92;;;;;;;4.49;70.64;101859.89;1745142;81;20909;-87
2022/12/29 11:18:32;;;;;;;19.70;11.93;;;;;;;4.53;70.85;101854.19;1745194;81;20888;-86
2022/12/29 11:21:02;;;;;;;14.90;8.33;;;;;;;4.57;70.75;101851.97;1745464;82;20959;-87
2022/12/29 11:23:38;;;;;;;8.03;6.30;;;;;;;4.64;71.08;101850.13;1709412;83;21158;-87
2022/12/29 11:26:19;;;;;;;10.18;7.05;;;;;;;4.68;70.97;101844.01;1709590;84;20912;-87
2022/12/29 11:28:49;;;;;;;9.28;6.35;;;;;;;4.69;70.71;101840.09;1746741;81;21429;-86
2022/12/29 11:31:17;;;;;;;9.65;5.72;;;;;;;4.70;70.42;101834.45;1744295;81;20897;-88
2022/12/29 11:33:45;;;;;;;14.10;7.62;;;;;;;4.69;70.47;101831.00;1745443;81;20924;-85
2022/12/29 11:36:17;;;;;;;14.05;8.00;;;;;;;4.67;70.72;101830.16;1745376;81;21199;-87
2022/12/29 11:38:52;;;;;;;8.05;6.03;;;;;;;4.68;71.05;101816.73;1746095;82;20924;-88
2022/12/29 11:41:29;;;;;;;7.78;5.47;;;;;;;4.67;71.19;101824.09;1746037;82;20901;-86
2022/12/29 11:43:58;;;;;;;10.13;6.20;;;;;;;4.64;71.13;101832.80;1709883;82;20876;-86
2022/12/29 11:46:33;;;;;;;9.20;5.92;;;;;;;4.63;71.44;101827.20;1709749;84;21437;-86
2022/12/29 11:49:00;;;;;;;9.18;5.60;;;;;;;4.66;71.86;101826.28;1709296;84;21492;-87
2022/12/29 11:51:46;;;;;;;7.67;5.33;;;;;;;4.71;71.92;101824.46;1709740;82;20900;-86
2022/12/29 11:54:23;;;;;;;8.75;4.80;;;;;;;4.75;71.85;101825.69;1710233;84;20936;-87
2022/12/29 11:56:50;;;;;;;9.48;5.80;;;;;;;4.80;71.63;101832.10;1711162;83;21135;-87
2022/12/29 11:59:41;;;;;;;9.68;5.25;;;;;;;4.88;71.39;101838.48;1710544;82;20896;-84
2022/12/29 12:02:37;;;;;;;6.90;4.05;;;;;;;4.96;70.76;101832.28;1711315;82;21168;-85
2022/12/29 12:05:54;;;;;;;6.83;4.17;;;;;;;5.06;70.27;101834.27;1707024;84;20979;-87
2022/12/29 12:08:53;;;;;;;10.58;6.60;;;;;;;5.13;69.42;101834.56;1710502;83;20987;-85
2022/12/29 12:11:24;;;;;;;10.15;7.17;;;;;;;5.27;69.78;101827.84;1710146;82;21051;-86
2022/12/29 12:14:02;;;;;;;6.90;4.22;;;;;;;5.49;68.79;101834.80;1709983;84;20980;-89
2022/12/29 12:16:45;;;;;;;6.62;4.00;;;;;;;5.65;68.08;101831.45;1709575;84;21116;-88
2022/12/29 12:19:28;;;;;;;10.43;4.70;;;;;;;5.75;67.31;101830.81;1746718;81;20905;-85
2022/12/29 12:22:02;;;;;;;6.50;3.98;;;;;;;5.78;67.00;101834.64;1747730;79;20940;-86
2022/12/29 12:24:41;;;;;;;6.15;3.65;;;;;;;5.76;66.88;101829.48;1747484;80;21003;-83
2022/12/29 12:27:25;;;;;;;8.30;3.80;;;;;;;5.70;66.80;101824.84;1711486;81;21006;-83
2022/12/29 12:30:17;;;;;;;7.87;4.62;;;;;;;5.63;67.09;101825.41;1711114;81;21136;-85
2022/12/29 12:33:12;;;;;;;13.58;7.08;;;;;;;5.55;67.24;101829.91;1711598;81;20825;-87